Time;durP1;ratioP1;P1;durP2;ratioP2;P2;SDS_P1;SDS_P2;PMS_P1;PMS_P2;Temp;Humidity;BMP_temperature;BMP_pressure;BME280_temperature;BME280_humidity;BME280_pressure;Samples;Min_cycle;Max_cycle;Signal;HPM_P1;HPM_P2
2021/01/14 00:00:51;;;;;;;72.90;37.80;;;;;;;;;;5114433;27;20343;-51
2021/01/14 00:03:17;;;;;;;56.38;28.05;;;;;;;;;;5114998;27;20526;-49
2021/01/14 00:05:44;;;;;;;40.30;22.40;;;;;;;;;;5132882;27;20023;-51
2021/01/14 00:08:10;;;;;;;32.40;17.20;;;;;;;;;;5133361;27;20106;-50
2021/01/14 00:10:36;;;;;;;32.47;17.10;;;;;;;;;;5132993;27;20031;-51
2021/01/14 00:13:04;;;;;;;31.50;15.70;;;;;;;;;;5133379;27;20027;-51
2021/01/14 00:15:30;;;;;;;28.98;15.02;;;;;;;;;;5132922;27;20072;-51
2021/01/14 00:17:56;;;;;;;27.58;15.80;;;;;;;;;;5133261;28;20037;-50
2021/01/14 00:20:22;;;;;;;32.50;15.77;;;;;;;;;;5132407;27;20015;-50
2021/01/14 00:22:48;;;;;;;33.95;17.23;;;;;;;;;;5133267;28;20440;-50
2021/01/14 00:25:15;;;;;;;53.00;28.15;;;;;;;;;;5132745;28;20459;-50
2021/01/14 00:27:41;;;;;;;81.95;38.40;;;;;;;;;;5132963;28;20138;-50
2021/01/14 00:30:28;;;;;;;138.85;57.03;;;;;;;;;;5132990;28;20040;-50
2021/01/14 00:33:00;;;;;;;106.90;46.15;;;;;;;;;;5132506;28;20023;-49
2021/01/14 00:35:26;;;;;;;122.82;58.03;;;;;;;;;;5132727;28;20561;-50
2021/01/14 00:37:55;;;;;;;150.52;72.07;;;;;;;;;;5132863;28;20035;-50
2021/01/14 00:40:21;;;;;;;334.02;163.98;;;;;;;;;;5132917;28;20481;-50
2021/01/14 00:42:58;;;;;;;339.70;163.05;;;;;;;;;;5116978;28;20027;-51
2021/01/14 00:45:24;;;;;;;423.60;198.68;;;;;;;;;;5114655;28;20020;-50
2021/01/14 00:47:50;;;;;;;328.23;149.50;;;;;;;;;;5112741;28;20043;-50
2021/01/14 00:50:17;;;;;;;214.88;101.63;;;;;;;;;;5115160;28;20428;-48
2021/01/14 00:52:43;;;;;;;179.70;83.13;;;;;;;;;;5114944;28;20024;-51
2021/01/14 00:55:10;;;;;;;269.08;120.43;;;;;;;;;;5115376;28;20433;-49
2021/01/14 00:57:36;;;;;;;279.05;130.70;;;;;;;;;;5113246;28;20023;-49
2021/01/14 01:00:06;;;;;;;260.25;124.13;;;;;;;;;;5114169;28;20028;-49
2021/01/14 01:02:32;;;;;;;247.65;113.50;;;;;;;;;;5112374;28;20106;-50
2021/01/14 01:04:58;;;;;;;235.43;113.75;;;;;;;;;;5129436;28;20159;-50
2021/01/14 01:07:24;;;;;;;253.13;120.30;;;;;;;;;;5114580;28;20023;-49
2021/01/14 01:09:50;;;;;;;327.48;153.50;;;;;;;;;;5112363;28;20019;-50
2021/01/14 01:12:17;;;;;;;312.33;150.45;;;;;;;;;;5130431;28;20023;-48
2021/01/14 01:14:43;;;;;;;304.05;144.88;;;;;;;;;;5132361;28;20484;-50
2021/01/14 01:17:10;;;;;;;335.13;158.70;;;;;;;;;;5130797;28;20050;-50
2021/01/14 01:19:36;;;;;;;294.45;137.52;;;;;;;;;;5132143;28;20015;-49
2021/01/14 01:22:02;;;;;;;210.63;101.68;;;;;;;;;;5131995;28;20035;-50
2021/01/14 01:24:28;;;;;;;213.23;101.63;;;;;;;;;;5132153;28;20015;-50
2021/01/14 01:26:54;;;;;;;240.85;114.00;;;;;;;;;;5132004;28;20102;-50
2021/01/14 01:29:20;;;;;;;214.88;104.63;;;;;;;;;;5115621;28;20031;-49
2021/01/14 01:31:46;;;;;;;234.73;109.03;;;;;;;;;;5113825;27;20022;-50
2021/01/14 01:34:13;;;;;;;235.45;110.55;;;;;;;;;;5118415;27;20058;-48
2021/01/14 01:36:39;;;;;;;213.95;100.47;;;;;;;;;;5116603;27;20084;-48
2021/01/14 01:39:05;;;;;;;249.75;113.80;;;;;;;;;;5116600;27;20054;-48
2021/01/14 01:41:31;;;;;;;245.85;112.80;;;;;;;;;;5115764;27;20161;-50
2021/01/14 01:43:57;;;;;;;244.45;109.47;;;;;;;;;;5127919;27;20027;-50
2021/01/14 01:46:25;;;;;;;246.90;107.45;;;;;;;;;;5134079;27;20471;-50
2021/01/14 01:48:52;;;;;;;259.38;114.63;;;;;;;;;;5129571;27;20034;-49
2021/01/14 01:51:19;;;;;;;253.30;112.55;;;;;;;;;;5135399;27;20027;-49
2021/01/14 01:53:45;;;;;;;295.75;127.72;;;;;;;;;;5135728;27;20034;-50
2021/01/14 01:56:11;;;;;;;264.80;113.70;;;;;;;;;;5136077;27;20523;-49
2021/01/14 01:58:40;;;;;;;247.73;100.93;;;;;;;;;;5135629;27;20122;-50
2021/01/14 02:01:07;;;;;;;225.23;97.20;;;;;;;;;;5135477;27;20019;-50
2021/01/14 02:03:33;;;;;;;165.35;75.40;;;;;;;;;;5135439;27;20565;-50
2021/01/14 02:05:59;;;;;;;180.85;79.57;;;;;;;;;;5135507;27;20222;-50
2021/01/14 02:08:25;;;;;;;189.68;81.00;;;;;;;;;;5126898;27;20471;-50
2021/01/14 02:11:04;;;;;;;254.45;99.47;;;;;;;;;;5123650;27;20080;-50
2021/01/14 02:13:33;;;;;;;98.97;43.95;;;;;;;;;;5124555;27;20107;-50
2021/01/14 02:16:01;;;;;;;147.43;62.78;;;;;;;;;;5135238;27;20030;-50
2021/01/14 02:18:27;;;;;;;142.95;54.70;;;;;;;;;;5111212;27;20129;-50
2021/01/14 02:20:55;;;;;;;98.03;37.08;;;;;;;;;;5124043;27;20081;-48
2021/01/14 02:23:23;;;;;;;106.93;46.65;;;;;;;;;;5116623;27;20063;-50
2021/01/14 02:26:02;;;;;;;119.55;51.08;;;;;;;;;;5116674;27;20090;-50
2021/01/14 02:28:29;;;;;;;142.05;59.00;;;;;;;;;;5117697;27;20016;-49
2021/01/14 02:30:55;;;;;;;141.40;59.25;;;;;;;;;;5115449;27;20028;-48
2021/01/14 02:33:21;;;;;;;164.57;63.95;;;;;;;;;;5115971;27;20015;-49
2021/01/14 02:35:47;;;;;;;162.73;65.20;;;;;;;;;;5114168;28;20047;-49
2021/01/14 02:38:13;;;;;;;183.95;75.20;;;;;;;;;;5116491;27;20390;-50
2021/01/14 02:40:39;;;;;;;204.77;82.68;;;;;;;;;;5117132;27;20020;-50
2021/01/14 02:43:05;;;;;;;192.85;78.80;;;;;;;;;;5123856;27;20387;-48
2021/01/14 02:45:33;;;;;;;201.93;84.45;;;;;;;;;;5116962;27;20446;-49
2021/01/14 02:47:59;;;;;;;193.65;81.43;;;;;;;;;;5116198;27;20072;-49
2021/01/14 02:50:27;;;;;;;197.13;81.80;;;;;;;;;;5133992;27;20470;-50
2021/01/14 02:52:54;;;;;;;209.57;86.40;;;;;;;;;;5134736;27;20155;-50
2021/01/14 02:55:20;;;;;;;203.82;86.43;;;;;;;;;;5134505;27;20015;-50
2021/01/14 02:57:46;;;;;;;197.00;83.70;;;;;;;;;;5134722;27;20031;-50
2021/01/14 03:00:13;;;;;;;167.80;68.95;;;;;;;;;;5134596;27;20076;-50
2021/01/14 03:02:39;;;;;;;174.95;74.55;;;;;;;;;;5120170;27;20482;-50
2021/01/14 03:05:05;;;;;;;172.23;70.47;;;;;;;;;;5134489;27;20108;-50
2021/01/14 03:07:31;;;;;;;166.98;69.47;;;;;;;;;;5134291;27;20130;-49
2021/01/14 03:09:57;;;;;;;163.00;69.53;;;;;;;;;;5134568;27;20051;-49
2021/01/14 03:12:23;;;;;;;168.00;71.65;;;;;;;;;;5134322;27;20502;-50
2021/01/14 03:14:49;;;;;;;187.77;76.53;;;;;;;;;;5134218;27;20385;-50
2021/01/14 03:17:15;;;;;;;206.23;87.72;;;;;;;;;;5121924;27;20160;-50
2021/01/14 03:19:41;;;;;;;204.93;81.88;;;;;;;;;;5113680;28;20031;-50
2021/01/14 03:22:07;;;;;;;214.05;88.55;;;;;;;;;;5119652;27;20032;-50
2021/01/14 03:24:33;;;;;;;239.70;103.90;;;;;;;;;;5132449;27;20050;-50
2021/01/14 03:26:59;;;;;;;253.15;110.78;;;;;;;;;;5121268;27;20030;-50
2021/01/14 03:29:25;;;;;;;290.75;131.30;;;;;;;;;;5134091;27;20020;-49
2021/01/14 03:31:51;;;;;;;231.75;103.30;;;;;;;;;;5133613;27;20026;-49
2021/01/14 03:34:18;;;;;;;201.05;86.97;;;;;;;;;;5121635;27;20062;-50
2021/01/14 03:37:00;;;;;;;193.20;84.40;;;;;;;;;;5130897;27;20032;-50
2021/01/14 03:39:27;;;;;;;207.77;91.32;;;;;;;;;;5117710;27;20016;-50
2021/01/14 03:41:54;;;;;;;217.57;94.68;;;;;;;;;;5133720;27;20084;-50
2021/01/14 03:44:20;;;;;;;214.77;91.32;;;;;;;;;;5133488;27;20106;-49
2021/01/14 03:46:47;;;;;;;208.10;92.20;;;;;;;;;;5133216;27;20031;-49
2021/01/14 03:49:13;;;;;;;198.27;87.75;;;;;;;;;;5133331;27;20030;-50
2021/01/14 03:51:40;;;;;;;195.95;88.95;;;;;;;;;;5133465;27;20118;-49
2021/01/14 03:54:06;;;;;;;185.23;83.38;;;;;;;;;;5133089;27;20026;-50
2021/01/14 03:56:38;;;;;;;162.43;75.32;;;;;;;;;;5132810;27;20057;-50
2021/01/14 03:59:04;;;;;;;128.13;60.95;;;;;;;;;;5133136;27;20023;-50
2021/01/14 04:01:31;;;;;;;115.22;55.03;;;;;;;;;;5133304;27;20019;-49
2021/01/14 04:03:57;;;;;;;88.18;43.65;;;;;;;;;;5132802;27;20067;-50
2021/01/14 04:06:30;;;;;;;81.82;39.67;;;;;;;;;;5133565;27;20125;-49
2021/01/14 04:08:56;;;;;;;72.55;34.88;;;;;;;;;;5132642;27;20031;-49
2021/01/14 04:11:22;;;;;;;65.07;32.90;;;;;;;;;;5132949;27;20026;-50
2021/01/14 04:13:48;;;;;;;67.60;33.75;;;;;;;;;;5132928;27;20055;-50
2021/01/14 04:16:14;;;;;;;68.70;34.55;;;;;;;;;;5133069;27;20102;-50
2021/01/14 04:18:40;;;;;;;71.95;37.55;;;;;;;;;;5132503;27;20042;-49
2021/01/14 04:21:06;;;;;;;73.47;36.55;;;;;;;;;;5101055;28;20042;-50
2021/01/14 04:23:32;;;;;;;73.43;36.22;;;;;;;;;;5132912;28;20023;-50
2021/01/14 04:25:58;;;;;;;80.65;38.83;;;;;;;;;;5118401;28;20474;-50
2021/01/14 04:28:24;;;;;;;96.38;47.20;;;;;;;;;;5132957;28;20112;-49
2021/01/14 04:30:50;;;;;;;101.20;47.40;;;;;;;;;;5132554;28;20035;-50
2021/01/14 04:33:16;;;;;;;79.25;41.03;;;;;;;;;;5132607;28;20026;-50
2021/01/14 04:35:46;;;;;;;84.97;41.35;;;;;;;;;;5132587;28;20043;-49
2021/01/14 04:38:12;;;;;;;84.97;41.42;;;;;;;;;;5095642;28;20077;-50
2021/01/14 04:40:39;;;;;;;134.00;60.38;;;;;;;;;;5112754;28;20047;-50
2021/01/14 04:43:05;;;;;;;131.85;58.13;;;;;;;;;;5132079;28;20019;-50
2021/01/14 04:45:32;;;;;;;126.18;59.20;;;;;;;;;;5132828;28;20023;-49
2021/01/14 04:47:59;;;;;;;153.10;65.78;;;;;;;;;;5131269;28;20027;-49
2021/01/14 04:50:27;;;;;;;160.13;70.13;;;;;;;;;;5093610;28;20016;-48
2021/01/14 04:52:55;;;;;;;108.78;51.72;;;;;;;;;;5103710;28;20471;-49
2021/01/14 04:55:25;;;;;;;101.05;48.25;;;;;;;;;;5101173;28;20023;-50
2021/01/14 04:57:52;;;;;;;99.75;48.38;;;;;;;;;;5100343;28;20035;-48
2021/01/14 05:00:19;;;;;;;101.38;49.67;;;;;;;;;;5094979;28;20020;-50
2021/01/14 05:03:04;;;;;;;227.00;98.70;;;;;;;;;;5090935;28;20024;-49
2021/01/14 05:05:33;;;;;;;183.02;80.15;;;;;;;;;;5102449;28;20041;-48
2021/01/14 05:08:03;;;;;;;161.15;71.82;;;;;;;;;;5096008;28;20043;-49
2021/01/14 05:10:31;;;;;;;174.18;78.13;;;;;;;;;;5095620;28;20409;-49
2021/01/14 05:12:57;;;;;;;146.65;67.78;;;;;;;;;;5094483;28;20026;-49
2021/01/14 05:15:27;;;;;;;111.10;51.95;;;;;;;;;;5097474;28;20035;-49
2021/01/14 05:17:55;;;;;;;95.28;47.65;;;;;;;;;;5096223;28;20036;-48
2021/01/14 05:20:21;;;;;;;117.63;56.13;;;;;;;;;;5096957;28;20030;-49
2021/01/14 05:22:48;;;;;;;126.05;57.13;;;;;;;;;;5096136;28;20099;-48
2021/01/14 05:25:14;;;;;;;118.45;52.35;;;;;;;;;;5099493;28;20027;-48
2021/01/14 05:27:40;;;;;;;106.95;50.53;;;;;;;;;;5117545;27;20069;-49
2021/01/14 05:30:08;;;;;;;101.97;48.60;;;;;;;;;;5106144;28;20035;-50
2021/01/14 05:32:37;;;;;;;112.22;53.50;;;;;;;;;;5094289;28;20027;-48
2021/01/14 05:35:06;;;;;;;125.28;57.78;;;;;;;;;;5123758;27;20035;-48
2021/01/14 05:37:33;;;;;;;307.33;117.28;;;;;;;;;;5123941;27;20035;-48
2021/01/14 05:39:59;;;;;;;305.45;123.43;;;;;;;;;;5120836;27;20522;-49
2021/01/14 05:42:26;;;;;;;173.10;83.80;;;;;;;;;;5136071;27;20031;-48
2021/01/14 05:44:52;;;;;;;140.50;65.78;;;;;;;;;;5135469;27;20031;-50
2021/01/14 05:47:22;;;;;;;130.23;62.08;;;;;;;;;;5136056;27;20022;-49
2021/01/14 05:50:02;;;;;;;196.82;87.10;;;;;;;;;;5135429;27;20023;-49
2021/01/14 05:52:29;;;;;;;330.50;136.15;;;;;;;;;;5130166;27;20030;-49
2021/01/14 05:55:09;;;;;;;245.73;109.40;;;;;;;;;;5135790;27;20016;-49
2021/01/14 05:57:38;;;;;;;166.20;78.00;;;;;;;;;;5135533;27;20168;-49
2021/01/14 06:00:14;;;;;;;118.95;56.53;;;;;;;;;;5135735;27;20064;-49
2021/01/14 06:02:40;;;;;;;105.70;50.55;;;;;;;;;;5135527;27;20027;-49
2021/01/14 06:05:25;;;;;;;155.63;70.13;;;;;;;;;;5134707;27;20549;-49
2021/01/14 06:07:51;;;;;;;142.75;64.53;;;;;;;;;;5135080;27;20031;-49
2021/01/14 06:10:30;;;;;;;172.35;78.22;;;;;;;;;;5135043;27;20507;-49
2021/01/14 06:12:56;;;;;;;308.05;125.82;;;;;;;;;;5135251;27;20067;-49
2021/01/14 06:15:22;;;;;;;203.73;96.57;;;;;;;;;;5135141;27;20470;-49
2021/01/14 06:17:48;;;;;;;152.48;75.38;;;;;;;;;;5134251;27;20046;-49
2021/01/14 06:20:14;;;;;;;153.80;73.47;;;;;;;;;;5134738;27;20023;-49
2021/01/14 06:22:44;;;;;;;169.38;85.03;;;;;;;;;;5134981;27;20488;-49
2021/01/14 06:25:10;;;;;;;160.02;76.75;;;;;;;;;;5133575;27;20122;-49
2021/01/14 06:27:37;;;;;;;173.05;85.13;;;;;;;;;;5122220;27;20027;-49
2021/01/14 06:30:07;;;;;;;165.32;83.15;;;;;;;;;;5135059;27;20038;-49
2021/01/14 06:32:35;;;;;;;141.15;65.78;;;;;;;;;;5134882;27;20031;-48
2021/01/14 06:35:02;;;;;;;141.88;65.32;;;;;;;;;;5124180;27;20047;-49
2021/01/14 06:37:28;;;;;;;133.27;63.60;;;;;;;;;;5095900;28;20044;-49
2021/01/14 06:39:58;;;;;;;127.95;59.80;;;;;;;;;;5102201;28;20032;-49
2021/01/14 06:42:31;;;;;;;123.30;58.90;;;;;;;;;;5096087;28;20028;-49
2021/01/14 06:44:59;;;;;;;125.88;58.53;;;;;;;;;;5098936;28;20034;-49
2021/01/14 06:47:31;;;;;;;106.78;50.13;;;;;;;;;;5108219;28;20102;-49
2021/01/14 06:49:56;;;;;;;;;;;;;;;;;;5110329;28;20031;-49
2021/01/14 06:52:23;;;;;;;149.65;69.45;;;;;;;;;;5077155;28;20425;-49
2021/01/14 06:54:51;;;;;;;222.02;114.25;;;;;;;;;;5095010;28;20494;-48
2021/01/14 06:57:22;;;;;;;581.58;315.70;;;;;;;;;;5094809;28;20036;-49
2021/01/14 06:59:52;;;;;;;401.67;211.02;;;;;;;;;;5101563;28;20104;-50
2021/01/14 07:02:30;;;;;;;254.25;119.47;;;;;;;;;;5094589;28;20035;-48
2021/01/14 07:05:06;;;;;;;236.32;114.45;;;;;;;;;;5094075;28;20028;-49
2021/01/14 07:07:32;;;;;;;244.18;124.60;;;;;;;;;;5075765;28;20077;-48
2021/01/14 07:10:09;;;;;;;204.90;107.75;;;;;;;;;;5095241;28;20020;-49
2021/01/14 07:12:35;;;;;;;144.05;70.28;;;;;;;;;;5093857;28;20008;-49
2021/01/14 07:15:09;;;;;;;207.68;94.35;;;;;;;;;;5094330;28;20063;-49
2021/01/14 07:17:39;;;;;;;196.30;100.07;;;;;;;;;;5110605;28;20028;-50
2021/01/14 07:20:08;;;;;;;264.23;127.03;;;;;;;;;;5093710;28;20035;-49
2021/01/14 07:22:38;;;;;;;209.38;104.50;;;;;;;;;;5093192;28;20020;-50
2021/01/14 07:25:04;;;;;;;262.60;132.18;;;;;;;;;;5092865;28;20515;-49
2021/01/14 07:27:31;;;;;;;283.30;139.25;;;;;;;;;;5093365;28;20028;-50
2021/01/14 07:29:57;;;;;;;261.83;133.25;;;;;;;;;;5092752;28;20024;-49
2021/01/14 07:32:42;;;;;;;249.75;122.72;;;;;;;;;;5093081;28;20032;-49
2021/01/14 07:35:28;;;;;;;245.27;118.45;;;;;;;;;;5104471;27;20051;-50
2021/01/14 07:37:54;;;;;;;281.63;136.98;;;;;;;;;;5133795;27;20039;-48
2021/01/14 07:40:30;;;;;;;357.52;160.40;;;;;;;;;;5133415;27;20061;-50
2021/01/14 07:42:57;;;;;;;298.33;141.57;;;;;;;;;;5133758;27;20034;-50
2021/01/14 07:45:23;;;;;;;234.43;117.57;;;;;;;;;;5133324;27;20023;-48
2021/01/14 07:47:49;;;;;;;229.52;114.95;;;;;;;;;;5133662;27;20486;-50
2021/01/14 07:50:21;;;;;;;205.98;103.53;;;;;;;;;;5133121;27;20019;-49
2021/01/14 07:52:47;;;;;;;;;;;;;;;;;;5133942;27;20019;-50
2021/01/14 07:55:23;;;;;;;177.32;87.47;;;;;;;;;;5133465;27;19907;-50
2021/01/14 07:58:03;;;;;;;222.57;111.78;;;;;;;;;;5133445;27;20031;-50
2021/01/14 08:00:30;;;;;;;202.75;104.50;;;;;;;;;;5133183;27;20051;-50
2021/01/14 08:03:08;;;;;;;196.40;98.50;;;;;;;;;;5133419;27;20050;-49
2021/01/14 08:05:57;;;;;;;209.40;107.15;;;;;;;;;;5133035;27;20027;-50
2021/01/14 08:08:29;;;;;;;172.02;81.85;;;;;;;;;;5133448;27;20072;-49
2021/01/14 08:11:23;;;;;;;164.50;79.03;;;;;;;;;;5133337;27;20052;-50
2021/01/14 08:14:03;;;;;;;166.88;80.90;;;;;;;;;;5133297;27;20064;-49
2021/01/14 08:16:33;;;;;;;184.38;89.85;;;;;;;;;;5119248;27;20026;-50
2021/01/14 08:19:14;;;;;;;190.45;92.50;;;;;;;;;;5132929;27;20482;-50
2021/01/14 08:21:40;;;;;;;281.40;137.65;;;;;;;;;;5133219;28;20113;-50
2021/01/14 08:24:06;;;;;;;270.90;135.55;;;;;;;;;;5133118;28;20019;-50
2021/01/14 08:26:51;;;;;;;254.52;127.97;;;;;;;;;;5132015;28;20027;-50
2021/01/14 08:29:28;;;;;;;215.57;107.35;;;;;;;;;;5132557;28;20112;-49
2021/01/14 08:31:54;;;;;;;239.43;121.82;;;;;;;;;;5132119;28;20012;-50
2021/01/14 08:34:21;;;;;;;287.52;132.90;;;;;;;;;;5132540;28;20161;-50
2021/01/14 08:36:47;;;;;;;267.60;131.00;;;;;;;;;;5133117;28;20035;-51
2021/01/14 08:39:18;;;;;;;238.15;121.03;;;;;;;;;;5132761;28;20049;-50
2021/01/14 08:41:45;;;;;;;245.13;123.15;;;;;;;;;;5134899;27;20020;-50
2021/01/14 08:44:11;;;;;;;296.95;146.15;;;;;;;;;;5137095;27;20019;-50
2021/01/14 08:46:38;;;;;;;272.45;137.35;;;;;;;;;;5137239;27;20381;-50
2021/01/14 08:49:30;;;;;;;277.02;138.95;;;;;;;;;;5137218;27;20019;-50
2021/01/14 08:52:03;;;;;;;244.02;122.03;;;;;;;;;;5117629;27;20039;-50
2021/01/14 08:54:30;;;;;;;255.07;129.82;;;;;;;;;;5137007;27;20024;-50
2021/01/14 08:57:04;;;;;;;232.85;119.78;;;;;;;;;;5136809;27;20038;-51
2021/01/14 08:59:30;;;;;;;190.10;98.00;;;;;;;;;;5136959;27;20038;-50
2021/01/14 09:01:58;;;;;;;196.48;103.05;;;;;;;;;;5136843;27;20019;-50
2021/01/14 09:04:26;;;;;;;197.35;104.78;;;;;;;;;;5136651;27;20033;-50
2021/01/14 09:06:52;;;;;;;214.30;114.45;;;;;;;;;;5137030;27;20839;-50
2021/01/14 09:09:18;;;;;;;220.05;117.07;;;;;;;;;;5136988;27;20090;-50
2021/01/14 09:11:46;;;;;;;192.90;101.90;;;;;;;;;;5136752;27;20102;-50
2021/01/14 09:14:18;;;;;;;160.80;80.85;;;;;;;;;;5136665;27;20068;-50
2021/01/14 09:16:46;;;;;;;161.10;85.72;;;;;;;;;;5136468;27;20312;-50
2021/01/14 09:19:12;;;;;;;164.93;85.40;;;;;;;;;;5136458;27;20026;-50
2021/01/14 09:21:38;;;;;;;220.05;109.70;;;;;;;;;;5136306;27;20527;-51
2021/01/14 09:24:11;;;;;;;234.43;116.30;;;;;;;;;;5136542;27;20030;-50
2021/01/14 09:26:43;;;;;;;209.82;104.97;;;;;;;;;;5136368;27;20022;-50
2021/01/14 09:29:13;;;;;;;219.35;113.35;;;;;;;;;;5136464;27;20019;-50
2021/01/14 09:31:40;;;;;;;243.02;126.90;;;;;;;;;;5136260;27;20023;-50
2021/01/14 09:34:06;;;;;;;311.63;160.18;;;;;;;;;;5135915;27;20024;-50
2021/01/14 09:36:35;;;;;;;313.40;158.35;;;;;;;;;;5136027;27;20035;-51
2021/01/14 09:39:05;;;;;;;319.95;165.13;;;;;;;;;;5136160;27;20113;-51
2021/01/14 09:41:31;;;;;;;279.27;147.25;;;;;;;;;;5136020;27;20374;-50
2021/01/14 09:43:58;;;;;;;216.75;113.55;;;;;;;;;;5135908;27;20027;-50
2021/01/14 09:46:26;;;;;;;199.23;103.28;;;;;;;;;;5135761;27;20106;-50
2021/01/14 09:48:56;;;;;;;179.82;96.13;;;;;;;;;;5135602;27;20030;-50
2021/01/14 09:51:22;;;;;;;193.55;104.30;;;;;;;;;;5135670;27;20050;-50
2021/01/14 09:53:49;;;;;;;207.73;111.47;;;;;;;;;;5134292;27;20011;-49
2021/01/14 09:56:18;;;;;;;213.80;114.07;;;;;;;;;;5135958;27;20031;-50
2021/01/14 09:58:49;;;;;;;192.48;105.00;;;;;;;;;;5135616;27;20041;-50
2021/01/14 10:01:18;;;;;;;197.20;105.38;;;;;;;;;;5135643;27;20458;-50
2021/01/14 10:03:46;;;;;;;201.88;109.57;;;;;;;;;;5135389;27;20087;-50
2021/01/14 10:06:13;;;;;;;179.40;96.35;;;;;;;;;;5135586;27;20035;-50
2021/01/14 10:08:45;;;;;;;187.68;103.60;;;;;;;;;;5135493;27;20023;-50
2021/01/14 10:11:11;;;;;;;195.77;104.18;;;;;;;;;;5135737;27;20079;-50
2021/01/14 10:13:47;;;;;;;224.15;119.68;;;;;;;;;;5135395;27;20023;-50
2021/01/14 10:16:13;;;;;;;196.05;104.25;;;;;;;;;;5133262;27;20023;-50
2021/01/14 10:18:39;;;;;;;205.30;110.45;;;;;;;;;;5135180;27;20031;-51
2021/01/14 10:21:05;;;;;;;199.52;110.82;;;;;;;;;;5134998;27;20502;-51
2021/01/14 10:23:33;;;;;;;179.60;98.72;;;;;;;;;;5135319;27;20031;-50
2021/01/14 10:25:59;;;;;;;162.90;87.95;;;;;;;;;;5135423;27;20019;-50
2021/01/14 10:28:26;;;;;;;162.73;88.63;;;;;;;;;;5135297;27;20549;-50
2021/01/14 10:30:53;;;;;;;165.63;91.60;;;;;;;;;;5117340;27;20438;-49
2021/01/14 10:33:19;;;;;;;193.13;106.35;;;;;;;;;;5135096;27;20047;-50
2021/01/14 10:35:55;;;;;;;186.95;104.45;;;;;;;;;;5134711;27;20536;-50
2021/01/14 10:38:22;;;;;;;180.00;94.15;;;;;;;;;;5134972;27;20093;-50
2021/01/14 10:40:49;;;;;;;163.93;88.93;;;;;;;;;;5135018;27;20019;-50
2021/01/14 10:43:15;;;;;;;166.80;90.68;;;;;;;;;;5134971;27;20068;-50
2021/01/14 10:45:42;;;;;;;161.48;87.53;;;;;;;;;;5134845;27;20019;-50
2021/01/14 10:48:15;;;;;;;209.57;109.05;;;;;;;;;;5135094;27;20445;-50
2021/01/14 10:50:51;;;;;;;156.18;85.32;;;;;;;;;;5133810;27;20474;-50
2021/01/14 10:53:25;;;;;;;196.43;113.85;;;;;;;;;;5120043;27;20015;-50
2021/01/14 10:56:04;;;;;;;155.93;85.65;;;;;;;;;;5134117;27;20416;-50
2021/01/14 10:58:31;;;;;;;165.68;94.78;;;;;;;;;;5121888;27;20126;-50
2021/01/14 11:00:57;;;;;;;150.27;81.57;;;;;;;;;;5134373;27;20015;-49
2021/01/14 11:03:24;;;;;;;179.35;96.85;;;;;;;;;;5134262;27;20425;-50
2021/01/14 11:05:52;;;;;;;142.27;74.35;;;;;;;;;;5133881;27;20558;-50
2021/01/14 11:08:18;;;;;;;161.48;85.55;;;;;;;;;;5134033;27;20027;-50
2021/01/14 11:10:45;;;;;;;142.10;76.25;;;;;;;;;;5134319;27;20030;-50
2021/01/14 11:13:18;;;;;;;158.35;83.65;;;;;;;;;;5134003;27;20042;-49
2021/01/14 11:15:44;;;;;;;131.60;70.63;;;;;;;;;;5134145;27;20015;-50
2021/01/14 11:18:10;;;;;;;118.53;61.47;;;;;;;;;;5133810;27;20043;-50
2021/01/14 11:20:37;;;;;;;134.75;73.47;;;;;;;;;;5134007;27;20046;-50
2021/01/14 11:23:03;;;;;;;204.57;103.30;;;;;;;;;;5133761;27;20046;-50
2021/01/14 11:25:30;;;;;;;165.55;85.03;;;;;;;;;;5133738;27;20463;-49
2021/01/14 11:27:57;;;;;;;139.90;75.72;;;;;;;;;;5133936;27;20532;-50
2021/01/14 11:30:23;;;;;;;149.75;77.78;;;;;;;;;;5133820;27;20019;-50
2021/01/14 11:32:49;;;;;;;142.98;77.00;;;;;;;;;;5133666;27;20159;-50
2021/01/14 11:35:15;;;;;;;190.48;100.13;;;;;;;;;;5133239;27;20046;-50
2021/01/14 11:37:42;;;;;;;175.27;92.85;;;;;;;;;;5133462;27;20080;-50
2021/01/14 11:40:08;;;;;;;139.38;75.95;;;;;;;;;;5133449;27;20023;-50
2021/01/14 11:42:34;;;;;;;120.55;65.22;;;;;;;;;;5133512;27;20027;-50
2021/01/14 11:45:01;;;;;;;127.28;71.85;;;;;;;;;;5133486;27;20056;-50
2021/01/14 11:47:27;;;;;;;149.40;83.78;;;;;;;;;;5133437;27;20027;-50
2021/01/14 11:49:53;;;;;;;136.90;73.72;;;;;;;;;;5133621;27;20067;-50
2021/01/14 11:52:20;;;;;;;148.00;83.55;;;;;;;;;;5133325;27;20020;-50
2021/01/14 11:54:48;;;;;;;146.50;84.88;;;;;;;;;;5133334;27;20040;-50
2021/01/14 11:57:15;;;;;;;143.88;84.70;;;;;;;;;;5133486;27;20397;-50
2021/01/14 11:59:41;;;;;;;182.80;104.40;;;;;;;;;;5133396;27;20374;-50
2021/01/14 12:02:07;;;;;;;211.60;115.32;;;;;;;;;;5133540;27;20102;-50
2021/01/14 12:04:33;;;;;;;248.65;130.13;;;;;;;;;;5132996;27;20027;-50
2021/01/14 12:06:59;;;;;;;184.85;97.22;;;;;;;;;;5133321;27;20023;-50
2021/01/14 12:09:25;;;;;;;195.25;101.47;;;;;;;;;;5132996;27;20098;-50
2021/01/14 12:11:54;;;;;;;194.57;100.43;;;;;;;;;;5133269;27;20019;-50
2021/01/14 12:14:21;;;;;;;192.63;99.00;;;;;;;;;;5132265;27;20404;-50
2021/01/14 12:16:47;;;;;;;192.43;102.90;;;;;;;;;;5121702;27;20532;-50
2021/01/14 12:19:13;;;;;;;272.08;136.05;;;;;;;;;;5112692;28;20071;-50
2021/01/14 12:21:39;;;;;;;247.07;125.72;;;;;;;;;;5112270;28;20073;-50
2021/01/14 12:24:05;;;;;;;195.10;111.15;;;;;;;;;;5112288;28;20023;-48
2021/01/14 12:26:31;;;;;;;181.98;103.53;;;;;;;;;;5112611;28;20012;-49
2021/01/14 12:28:57;;;;;;;194.38;108.63;;;;;;;;;;5112449;28;20106;-48
2021/01/14 12:31:23;;;;;;;195.35;110.20;;;;;;;;;;5112676;28;20455;-48
2021/01/14 12:33:49;;;;;;;187.35;107.82;;;;;;;;;;5112299;28;20067;-50
2021/01/14 12:36:17;;;;;;;190.40;109.53;;;;;;;;;;5112184;28;20053;-49
2021/01/14 12:38:43;;;;;;;199.43;115.00;;;;;;;;;;5112290;28;20047;-50
2021/01/14 12:41:09;;;;;;;256.40;146.07;;;;;;;;;;5112047;28;20016;-50
2021/01/14 12:43:35;;;;;;;235.02;131.00;;;;;;;;;;5112496;28;20035;-50
2021/01/14 12:46:01;;;;;;;241.00;135.07;;;;;;;;;;5112541;28;20035;-50
2021/01/14 12:48:27;;;;;;;253.48;145.20;;;;;;;;;;5112023;28;20043;-50
2021/01/14 12:50:53;;;;;;;253.95;144.32;;;;;;;;;;5115049;28;20364;-50
2021/01/14 12:53:19;;;;;;;245.13;142.15;;;;;;;;;;5114562;28;20038;-49
2021/01/14 12:55:45;;;;;;;215.70;123.53;;;;;;;;;;5111834;28;20020;-50
2021/01/14 12:58:11;;;;;;;227.10;126.45;;;;;;;;;;5112202;28;20045;-51
2021/01/14 13:00:37;;;;;;;182.55;106.13;;;;;;;;;;5132600;28;20023;-51
2021/01/14 13:03:03;;;;;;;167.23;96.53;;;;;;;;;;5132668;28;20471;-51
2021/01/14 13:05:30;;;;;;;169.93;100.40;;;;;;;;;;5132435;28;20031;-50
2021/01/14 13:07:56;;;;;;;236.30;131.98;;;;;;;;;;5122843;28;20106;-50
2021/01/14 13:10:22;;;;;;;327.42;183.20;;;;;;;;;;5128881;28;20099;-51
2021/01/14 13:12:48;;;;;;;237.60;137.38;;;;;;;;;;5126350;28;20055;-50
2021/01/14 13:15:14;;;;;;;245.07;136.77;;;;;;;;;;5127055;28;20068;-50
2021/01/14 13:17:43;;;;;;;241.40;138.40;;;;;;;;;;5132422;28;20061;-51
2021/01/14 13:20:09;;;;;;;254.45;146.10;;;;;;;;;;5132820;28;20047;-51
2021/01/14 13:22:35;;;;;;;265.90;150.82;;;;;;;;;;5130721;28;20019;-50
2021/01/14 13:25:01;;;;;;;276.65;158.70;;;;;;;;;;5132363;28;20019;-51
2021/01/14 13:27:27;;;;;;;270.33;157.80;;;;;;;;;;5134083;27;20114;-51
2021/01/14 13:29:53;;;;;;;272.02;155.60;;;;;;;;;;5136254;27;20019;-51
2021/01/14 13:32:19;;;;;;;255.88;149.55;;;;;;;;;;5136440;27;20019;-51
2021/01/14 13:34:45;;;;;;;252.77;145.35;;;;;;;;;;5136019;27;20035;-50
2021/01/14 13:37:12;;;;;;;240.85;132.57;;;;;;;;;;5136077;27;20075;-51
2021/01/14 13:39:38;;;;;;;242.02;134.25;;;;;;;;;;5135926;27;20102;-51
2021/01/14 13:42:05;;;;;;;251.98;141.45;;;;;;;;;;5136101;27;20027;-50
2021/01/14 13:44:31;;;;;;;182.55;106.20;;;;;;;;;;5136197;27;20362;-51
2021/01/14 13:46:57;;;;;;;174.98;102.93;;;;;;;;;;5135889;27;20049;-51
2021/01/14 13:49:24;;;;;;;178.00;106.35;;;;;;;;;;5136059;27;20486;-51
2021/01/14 13:51:50;;;;;;;219.20;125.57;;;;;;;;;;5135648;27;20027;-51
2021/01/14 13:54:16;;;;;;;202.80;116.00;;;;;;;;;;5135868;27;20027;-51
2021/01/14 13:56:43;;;;;;;218.20;131.18;;;;;;;;;;5135695;27;20048;-51
2021/01/14 13:59:09;;;;;;;248.25;144.77;;;;;;;;;;5132531;27;20038;-50
2021/01/14 14:01:38;;;;;;;273.35;153.65;;;;;;;;;;5135319;27;20024;-51
2021/01/14 14:04:04;;;;;;;259.73;147.30;;;;;;;;;;5120769;27;20106;-51
2021/01/14 14:06:35;;;;;;;232.80;134.88;;;;;;;;;;5135150;27;20480;-50